Time;durP1;ratioP1;P1;durP2;ratioP2;P2;SDS_P1;SDS_P2;PMS_P1;PMS_P2;Temp;Humidity;BMP_temperature;BMP_pressure;BME280_temperature;BME280_humidity;BME280_pressure;Samples;Min_cycle;Max_cycle;Signal;HPM_P1;HPM_P2
2022/05/22 00:00:31;;;;;;;5.83;3.57;;;12.50;99.90;;;;;;5078215;28;20449;-71
2022/05/22 00:03:19;;;;;;;9.83;4.57;;;12.50;99.90;;;;;;5075020;28;20538;-71
2022/05/22 00:06:07;;;;;;;4.40;3.10;;;12.60;99.90;;;;;;5073528;28;20480;-71
2022/05/22 00:08:55;;;;;;;6.33;3.23;;;12.50;99.90;;;;;;5080329;28;20615;-71
2022/05/22 00:11:44;;;;;;;7.50;3.50;;;12.50;99.90;;;;;;5078460;28;20536;-71
2022/05/22 00:14:33;;;;;;;8.47;3.50;;;12.50;99.90;;;;;;5078238;28;20627;-70
2022/05/22 00:17:21;;;;;;;5.83;3.97;;;12.50;99.90;;;;;;5078627;28;21816;-71
2022/05/22 00:20:11;;;;;;;5.43;3.50;;;12.40;99.90;;;;;;5076067;28;20470;-71
2022/05/22 00:22:59;;;;;;;6.67;3.80;;;12.40;99.90;;;;;;5078199;28;20595;-71
2022/05/22 00:25:47;;;;;;;10.20;4.10;;;12.30;99.90;;;;;;5080494;28;20501;-71
2022/05/22 00:28:37;;;;;;;5.80;3.70;;;12.30;99.90;;;;;;5077775;28;20495;-71
2022/05/22 00:31:25;;;;;;;4.87;3.97;;;12.30;99.90;;;;;;5089386;28;20537;-72
2022/05/22 00:34:13;;;;;;;3.70;3.30;;;12.40;99.90;;;;;;5089404;28;20474;-71
2022/05/22 00:37:01;;;;;;;4.70;3.50;;;12.40;99.90;;;;;;5079375;28;20445;-71
2022/05/22 00:39:49;;;;;;;9.53;4.03;;;12.30;99.90;;;;;;5077746;28;20508;-71
2022/05/22 00:42:38;;;;;;;6.83;3.60;;;12.30;99.90;;;;;;5077026;28;20527;-71
2022/05/22 00:45:28;;;;;;;6.43;3.50;;;12.30;99.90;;;;;;5079058;28;20615;-70
2022/05/22 00:48:16;;;;;;;5.33;3.07;;;12.30;99.90;;;;;;5076197;28;20784;-71
2022/05/22 00:51:08;;;;;;;10.37;4.17;;;12.20;99.90;;;;;;5075318;28;20544;-71
2022/05/22 00:53:59;;;;;;;10.33;3.73;;;12.20;99.90;;;;;;5081720;28;20518;-71
2022/05/22 00:56:52;;;;;;;7.10;3.67;;;12.20;99.90;;;;;;5076430;28;20566;-71
2022/05/22 00:59:45;;;;;;;8.47;3.60;;;12.20;99.90;;;;;;5076393;28;20908;-71
2022/05/22 01:05:37;;;;;;;7.40;3.70;;;12.20;99.90;;;;;;5075266;28;20472;-71
2022/05/22 01:08:25;;;;;;;6.10;4.03;;;12.20;99.90;;;;;;5078384;28;20499;-71
2022/05/22 01:11:16;;;;;;;8.93;4.50;;;12.20;99.90;;;;;;5073734;28;20441;-71
2022/05/22 01:14:09;;;;;;;4.67;4.13;;;12.10;99.90;;;;;;5076088;28;20556;-71
2022/05/22 01:17:01;;;;;;;7.80;4.20;;;12.10;99.90;;;;;;5078207;28;20445;-71
2022/05/22 01:19:59;;;;;;;4.50;3.80;;;12.10;99.90;;;;;;5076329;28;20563;-71
2022/05/22 01:22:48;;;;;;;7.23;4.17;;;12.10;99.90;;;;;;5075664;28;20557;-71
2022/05/22 01:25:36;;;;;;;6.57;4.30;;;12.00;99.90;;;;;;5075912;28;20563;-71
2022/05/22 01:28:24;;;;;;;6.00;4.20;;;12.00;99.90;;;;;;5076054;28;20516;-71
2022/05/22 01:31:13;;;;;;;6.77;3.93;;;12.00;99.90;;;;;;5073733;28;20460;-71
2022/05/22 01:34:01;;;;;;;7.47;4.50;;;12.00;99.90;;;;;;5071493;28;20473;-71
2022/05/22 01:36:49;;;;;;;4.43;3.97;;;11.90;99.90;;;;;;5077969;28;20445;-71
2022/05/22 01:39:39;;;;;;;8.43;4.73;;;11.90;99.90;;;;;;5073807;28;20488;-71
2022/05/22 01:42:27;;;;;;;7.47;4.60;;;11.90;99.90;;;;;;5077132;28;20457;-71
2022/05/22 01:45:19;;;;;;;6.00;4.00;;;11.90;99.90;;;;;;5074230;28;20470;-71
2022/05/22 01:48:07;;;;;;;7.47;4.20;;;11.80;99.90;;;;;;5075087;28;20442;-71
2022/05/22 01:50:56;;;;;;;7.53;4.20;;;11.80;99.90;;;;;;5075579;28;20598;-71
2022/05/22 01:53:44;;;;;;;6.53;4.23;;;11.80;99.90;;;;;;5074074;28;20556;-72
2022/05/22 01:56:35;;;;;;;6.87;4.23;;;11.80;99.90;;;;;;5073479;28;20591;-71
2022/05/22 01:59:23;;;;;;;6.90;4.60;;;11.80;99.90;;;;;;5075838;28;20603;-71
2022/05/22 02:02:11;;;;;;;8.37;4.77;;;11.80;99.90;;;;;;5075229;28;20556;-71
2022/05/22 02:05:02;;;;;;;5.67;4.20;;;11.90;99.90;;;;;;5074682;28;20476;-71
2022/05/22 02:11:02;;;;;;;5.87;4.60;;;11.80;99.90;;;;;;5074443;28;20607;-70
2022/05/22 02:13:52;;;;;;;4.63;4.23;;;11.80;99.90;;;;;;5073366;28;20556;-71
2022/05/22 02:16:41;;;;;;;5.07;4.40;;;11.80;99.90;;;;;;5075495;28;20456;-71
2022/05/22 02:19:29;;;;;;;6.40;4.50;;;11.80;99.90;;;;;;5075670;28;20485;-71
2022/05/22 02:22:17;;;;;;;5.57;4.33;;;11.80;99.90;;;;;;5073814;28;20464;-71
2022/05/22 02:25:07;;;;;;;9.93;4.67;;;11.80;99.90;;;;;;5075702;28;20546;-71
2022/05/22 02:27:55;;;;;;;9.10;4.53;;;11.80;99.90;;;;;;5076664;28;20449;-71
2022/05/22 02:30:48;;;;;;;5.00;4.37;;;11.90;99.90;;;;;;5076467;28;20995;-71
2022/05/22 02:33:36;;;;;;;7.03;4.77;;;11.90;99.90;;;;;;5075137;28;21008;-71
2022/05/22 02:36:24;;;;;;;7.90;4.30;;;11.90;99.90;;;;;;5075486;28;21091;-71
2022/05/22 02:39:12;;;;;;;9.33;4.53;;;11.90;99.90;;;;;;5075173;28;20601;-70
2022/05/22 02:42:02;;;;;;;7.60;4.23;;;11.90;99.90;;;;;;5074542;28;20465;-71
2022/05/22 02:44:51;;;;;;;8.40;4.60;;;11.90;99.90;;;;;;5076875;28;20832;-70
2022/05/22 02:47:40;;;;;;;5.70;4.17;;;11.90;99.90;;;;;;5078055;28;20557;-71
2022/05/22 02:50:31;;;;;;;6.57;3.97;;;11.80;99.90;;;;;;5075109;28;20525;-70
2022/05/22 02:53:19;;;;;;;7.03;3.90;;;11.80;99.90;;;;;;5074065;28;20559;-71
2022/05/22 02:56:08;;;;;;;5.53;4.10;;;11.80;99.90;;;;;;5075892;28;20599;-71
2022/05/22 02:58:56;;;;;;;7.30;4.17;;;11.80;99.90;;;;;;5074731;28;20943;-71
2022/05/22 03:01:44;;;;;;;6.27;4.13;;;11.80;99.90;;;;;;5073862;28;20529;-71
2022/05/22 03:04:33;;;;;;;8.10;3.80;;;11.70;99.90;;;;;;5076516;28;20554;-71
2022/05/22 03:07:21;;;;;;;11.17;5.30;;;11.70;99.90;;;;;;5076104;28;20606;-71
2022/05/22 03:10:12;;;;;;;9.13;4.50;;;11.70;99.90;;;;;;5077743;28;20461;-70
2022/05/22 03:13:00;;;;;;;7.33;4.00;;;11.70;99.90;;;;;;5076426;28;20559;-71
2022/05/22 03:15:50;;;;;;;7.50;4.27;;;11.70;99.90;;;;;;5081858;28;20504;-71
2022/05/22 03:18:38;;;;;;;6.40;4.50;;;11.70;99.90;;;;;;5077553;28;20461;-71
2022/05/22 03:21:28;;;;;;;6.17;4.17;;;11.70;99.90;;;;;;5078924;28;21043;-71
2022/05/22 03:24:16;;;;;;;8.03;4.50;;;11.70;99.90;;;;;;5079774;28;20941;-71
2022/05/22 03:27:06;;;;;;;5.30;4.10;;;11.70;99.90;;;;;;5082007;28;20591;-71
2022/05/22 03:29:54;;;;;;;5.60;3.80;;;11.70;99.90;;;;;;5079899;28;20534;-71
2022/05/22 03:32:42;;;;;;;6.37;4.13;;;11.70;99.90;;;;;;5072605;28;20595;-71
2022/05/22 03:35:30;;;;;;;7.97;4.43;;;11.70;99.90;;;;;;5077500;28;21296;-71
2022/05/22 03:38:19;;;;;;;7.37;4.37;;;11.60;99.90;;;;;;5080066;28;20585;-71
2022/05/22 03:41:07;;;;;;;5.53;4.33;;;11.60;99.90;;;;;;5078136;28;20590;-71
2022/05/22 03:43:56;;;;;;;7.17;4.50;;;11.60;99.90;;;;;;5080745;28;20577;-70
2022/05/22 03:46:44;;;;;;;8.07;3.93;;;11.60;99.90;;;;;;5080224;28;20543;-70
2022/05/22 03:49:32;;;;;;;5.33;4.17;;;11.60;99.90;;;;;;5079994;28;20438;-71
2022/05/22 03:52:21;;;;;;;9.90;4.53;;;11.60;99.90;;;;;;5078025;28;20522;-71
2022/05/22 03:55:13;;;;;;;8.23;4.20;;;11.70;99.90;;;;;;5079443;28;20529;-71
2022/05/22 03:58:02;;;;;;;6.37;4.30;;;11.60;99.90;;;;;;5080831;28;20477;-71
2022/05/22 04:00:50;;;;;;;7.47;4.10;;;11.60;99.90;;;;;;5081607;28;20558;-71
2022/05/22 04:03:38;;;;;;;8.50;4.20;;;11.70;99.90;;;;;;5087289;28;20512;-71
2022/05/22 04:06:27;;;;;;;5.83;3.80;;;11.60;99.90;;;;;;5084834;28;20483;-71
2022/05/22 04:09:15;;;;;;;10.93;4.20;;;11.60;99.90;;;;;;5079883;28;20992;-71
2022/05/22 04:12:08;;;;;;;9.03;4.43;;;11.60;99.90;;;;;;5078913;28;20609;-71
2022/05/22 04:14:56;;;;;;;10.03;4.27;;;11.60;99.90;;;;;;5078927;28;20606;-71
2022/05/22 04:17:44;;;;;;;9.03;4.33;;;11.70;99.90;;;;;;5078062;28;20623;-71
2022/05/22 04:20:32;;;;;;;6.23;3.70;;;11.70;99.90;;;;;;5080080;28;20532;-70
2022/05/22 04:26:30;;;;;;;11.90;4.83;;;11.70;99.90;;;;;;5078461;28;20493;-71
2022/05/22 04:29:20;;;;;;;6.97;4.57;;;11.80;99.90;;;;;;5081387;28;20527;-70
2022/05/22 04:32:08;;;;;;;7.77;3.93;;;11.80;99.90;;;;;;5077481;28;20552;-71
2022/05/22 04:34:57;;;;;;;7.77;4.40;;;11.90;99.90;;;;;;5077857;28;20573;-71
2022/05/22 04:37:45;;;;;;;8.63;4.17;;;11.90;99.90;;;;;;5079296;28;20449;-71
2022/05/22 04:40:33;;;;;;;4.67;3.83;;;11.90;99.90;;;;;;5080762;28;21126;-71
2022/05/22 04:43:21;;;;;;;6.37;3.77;;;11.90;99.90;;;;;;5078126;28;20483;-71
2022/05/22 04:46:11;;;;;;;10.73;4.90;;;11.90;99.90;;;;;;5078410;28;20631;-71
2022/05/22 04:48:59;;;;;;;10.10;4.60;;;11.90;99.90;;;;;;5079511;28;20554;-71
2022/05/22 04:51:47;;;;;;;7.13;3.90;;;12.00;99.90;;;;;;5078714;28;20590;-71
2022/05/22 04:54:35;;;;;;;7.20;4.13;;;12.00;99.90;;;;;;5081043;28;20470;-71
2022/05/22 04:57:23;;;;;;;4.97;4.10;;;12.20;99.90;;;;;;5084084;28;21031;-71
2022/05/22 05:00:12;;;;;;;4.43;3.90;;;12.20;99.90;;;;;;5084400;28;20484;-71
2022/05/22 05:03:02;;;;;;;7.03;4.23;;;12.10;99.90;;;;;;5080508;28;20595;-71
2022/05/22 05:05:55;;;;;;;7.17;4.03;;;12.10;99.90;;;;;;5079426;28;20474;-71
2022/05/22 05:08:44;;;;;;;8.50;4.10;;;12.10;99.90;;;;;;5079304;28;20545;-70
2022/05/22 05:11:33;;;;;;;6.93;4.37;;;12.10;99.90;;;;;;5076892;28;20473;-71
2022/05/22 05:14:21;;;;;;;8.10;4.60;;;12.20;99.90;;;;;;5076720;28;20558;-71
2022/05/22 05:17:09;;;;;;;6.97;3.80;;;12.20;99.90;;;;;;5076568;28;20461;-71
2022/05/22 05:19:59;;;;;;;7.10;4.50;;;12.20;99.90;;;;;;5079403;28;20469;-71
2022/05/22 05:22:47;;;;;;;6.93;3.87;;;12.30;99.90;;;;;;5078976;28;20465;-70
2022/05/22 05:25:35;;;;;;;8.63;4.60;;;12.30;99.90;;;;;;5077244;28;21242;-70
2022/05/22 05:28:23;;;;;;;7.27;4.70;;;12.30;99.90;;;;;;5078722;28;21040;-71
2022/05/22 05:31:11;;;;;;;8.03;4.13;;;12.30;99.90;;;;;;5078002;28;20469;-71
2022/05/22 05:33:59;;;;;;;7.97;4.10;;;12.30;99.90;;;;;;5076459;28;21179;-71
2022/05/22 05:36:49;;;;;;;7.30;4.50;;;12.40;99.90;;;;;;5075451;28;20503;-71
2022/05/22 05:39:37;;;;;;;5.40;3.90;;;12.40;99.90;;;;;;5074685;28;20499;-71
2022/05/22 05:42:26;;;;;;;5.47;4.70;;;12.50;99.90;;;;;;5074228;28;20553;-71
2022/05/22 05:45:15;;;;;;;7.83;4.10;;;12.50;99.90;;;;;;5075123;28;20615;-70
2022/05/22 05:48:04;;;;;;;6.47;4.00;;;12.50;99.90;;;;;;5078665;28;20548;-71
2022/05/22 05:50:53;;;;;;;7.87;4.30;;;12.60;99.90;;;;;;5078500;28;20444;-71
2022/05/22 05:53:43;;;;;;;6.30;4.23;;;12.60;99.90;;;;;;5076835;28;20499;-71
2022/05/22 05:56:31;;;;;;;9.10;5.03;;;12.60;99.90;;;;;;5078589;28;21007;-72
2022/05/22 05:59:19;;;;;;;8.00;4.60;;;12.60;99.90;;;;;;5077214;28;20608;-71
2022/05/22 06:02:10;;;;;;;9.57;4.30;;;12.70;99.90;;;;;;5076463;28;20469;-71
2022/05/22 06:04:59;;;;;;;7.83;4.10;;;12.70;99.90;;;;;;5076189;28;20511;-70
2022/05/22 06:07:49;;;;;;;8.90;3.60;;;12.70;99.90;;;;;;5078811;28;21027;-70
2022/05/22 06:10:39;;;;;;;8.80;4.00;;;12.70;99.90;;;;;;5077664;28;20442;-71
2022/05/22 06:13:27;;;;;;;7.90;3.90;;;12.80;99.90;;;;;;5077876;28;20462;-71
2022/05/22 06:16:15;;;;;;;4.93;4.10;;;12.90;99.90;;;;;;5078287;28;21051;-71
2022/05/22 06:19:03;;;;;;;8.13;4.33;;;12.90;99.90;;;;;;5076897;28;21031;-71
2022/05/22 06:21:51;;;;;;;12.17;5.57;;;12.90;99.90;;;;;;5076564;28;20571;-71
2022/05/22 06:24:39;;;;;;;9.27;4.47;;;12.90;99.90;;;;;;5075604;28;20558;-71
2022/05/22 06:27:29;;;;;;;8.10;4.70;;;13.00;99.90;;;;;;5076103;28;20529;-71
2022/05/22 06:30:20;;;;;;;8.37;4.27;;;13.10;99.90;;;;;;5077532;28;20460;-70
2022/05/22 06:33:11;;;;;;;7.27;3.70;;;13.10;99.90;;;;;;5077123;28;20547;-71
2022/05/22 06:35:59;;;;;;;6.03;3.37;;;13.10;99.90;;;;;;5076520;28;20465;-71
2022/05/22 06:41:53;;;;;;;4.50;3.20;;;13.10;99.90;;;;;;5076237;28;20483;-71
2022/05/22 06:44:43;;;;;;;6.03;3.10;;;13.10;99.90;;;;;;5076383;28;20567;-71
2022/05/22 06:47:32;;;;;;;5.47;3.27;;;13.20;99.90;;;;;;5075240;28;20469;-71
2022/05/22 06:50:24;;;;;;;6.10;4.13;;;13.20;99.90;;;;;;5080134;28;20545;-70
2022/05/22 06:53:12;;;;;;;8.30;4.40;;;13.20;99.90;;;;;;5080443;28;20484;-70
2022/05/22 06:56:00;;;;;;;10.17;4.00;;;13.20;99.90;;;;;;5077224;28;20708;-70
2022/05/22 06:58:48;;;;;;;8.77;4.30;;;13.20;99.90;;;;;;5078112;28;20550;-71
2022/05/22 07:01:38;;;;;;;5.83;3.87;;;13.30;99.90;;;;;;5079538;28;20600;-71
2022/05/22 07:04:26;;;;;;;7.00;3.63;;;13.40;99.90;;;;;;5077748;28;20496;-71
2022/05/22 07:07:14;;;;;;;10.07;3.67;;;13.40;99.90;;;;;;5080455;28;20545;-71
2022/05/22 07:10:03;;;;;;;5.57;3.50;;;13.50;99.90;;;;;;5076428;28;20533;-71
2022/05/22 07:12:54;;;;;;;7.13;3.67;;;13.50;99.90;;;;;;5081035;28;20506;-71
2022/05/22 07:15:42;;;;;;;7.43;3.80;;;13.50;99.90;;;;;;5088725;28;20540;-71
2022/05/22 07:18:32;;;;;;;7.60;3.80;;;13.40;99.90;;;;;;5088747;28;20506;-71
2022/05/22 07:21:20;;;;;;;5.53;3.60;;;13.50;99.90;;;;;;5084026;28;20968;-70
2022/05/22 07:24:08;;;;;;;8.50;4.37;;;13.50;99.90;;;;;;5079472;28;20468;-70
2022/05/22 07:26:57;;;;;;;6.70;3.40;;;13.50;99.90;;;;;;5082143;28;21063;-70
2022/05/22 07:29:46;;;;;;;4.50;3.23;;;13.60;99.90;;;;;;5079267;28;20523;-71
2022/05/22 07:32:34;;;;;;;8.70;3.43;;;13.70;99.90;;;;;;5078919;28;20470;-71
2022/05/22 07:35:25;;;;;;;7.07;3.40;;;13.80;99.90;;;;;;5079306;28;20559;-70
2022/05/22 07:38:13;;;;;;;5.67;2.93;;;13.90;99.90;;;;;;5081089;28;20532;-70
2022/05/22 07:41:01;;;;;;;7.00;3.03;;;14.00;99.90;;;;;;5078400;28;20576;-70
2022/05/22 07:43:49;;;;;;;3.37;2.50;;;14.10;99.90;;;;;;5078679;28;20484;-70
2022/05/22 07:46:37;;;;;;;4.43;3.40;;;14.20;99.90;;;;;;5079200;28;20599;-71
2022/05/22 07:52:32;;;;;;;5.57;3.03;;;14.20;99.90;;;;;;5077179;28;20548;-70
2022/05/22 07:55:21;;;;;;;6.80;2.90;;;14.20;99.90;;;;;;5077548;28;20517;-70
2022/05/22 07:58:09;;;;;;;6.63;3.40;;;14.10;99.90;;;;;;5079114;28;20540;-70
2022/05/22 08:00:58;;;;;;;5.37;2.80;;;14.10;99.90;;;;;;5077079;28;20453;-71
2022/05/22 08:03:47;;;;;;;6.17;3.33;;;14.10;99.90;;;;;;5076532;28;20473;-70
2022/05/22 08:06:35;;;;;;;7.10;2.90;;;14.10;99.90;;;;;;5076144;28;20470;-70
2022/05/22 08:09:24;;;;;;;4.87;2.87;;;14.10;99.90;;;;;;5077960;28;20538;-71
2022/05/22 08:12:12;;;;;;;5.43;3.10;;;14.10;99.90;;;;;;5078078;28;20517;-70
2022/05/22 08:15:00;;;;;;;4.73;2.70;;;14.20;99.90;;;;;;5080241;28;20514;-71
2022/05/22 08:17:49;;;;;;;4.37;3.03;;;14.30;99.90;;;;;;5078552;28;20578;-70
2022/05/22 08:20:39;;;;;;;7.10;3.20;;;14.40;99.90;;;;;;5080044;28;20603;-71
2022/05/22 08:23:27;;;;;;;4.50;2.70;;;14.50;99.90;;;;;;5075494;28;20660;-70
2022/05/22 08:26:16;;;;;;;6.73;3.03;;;14.50;99.90;;;;;;5077053;28;20470;-71
2022/05/22 08:29:05;;;;;;;6.40;2.83;;;14.50;99.90;;;;;;5080505;28;20591;-70
2022/05/22 08:31:53;;;;;;;4.80;2.97;;;14.40;99.90;;;;;;5078277;28;20457;-70
2022/05/22 08:34:41;;;;;;;5.83;3.13;;;14.40;99.90;;;;;;5078343;28;20474;-70
2022/05/22 08:37:29;;;;;;;3.53;2.43;;;14.40;99.90;;;;;;5078831;28;20532;-71
2022/05/22 08:40:20;;;;;;;5.13;2.73;;;14.40;99.90;;;;;;5076817;28;20548;-70
2022/05/22 08:43:13;;;;;;;3.87;2.80;;;14.40;99.90;;;;;;5078397;28;20561;-70
2022/05/22 08:46:08;;;;;;;5.50;3.00;;;14.40;99.90;;;;;;5077925;28;20867;-71
2022/05/22 08:49:00;;;;;;;6.87;2.73;;;14.50;99.90;;;;;;5079371;28;20449;-70
2022/05/22 08:51:52;;;;;;;4.37;3.03;;;14.50;99.90;;;;;;5080953;28;20445;-71
2022/05/22 08:54:43;;;;;;;5.17;2.23;;;14.60;99.90;;;;;;5076660;28;20499;-70
2022/05/22 09:01:14;;;;;;;3.43;2.40;;;14.80;99.90;;;;;;5073425;28;20465;-71
2022/05/22 09:04:12;;;;;;;4.37;2.20;;;14.90;99.90;;;;;;5076193;28;20530;-71
2022/05/22 09:07:16;;;;;;;4.80;2.10;;;14.90;99.90;;;;;;5076439;28;20467;-70
2022/05/22 09:10:08;;;;;;;4.93;2.90;;;15.00;99.90;;;;;;5076676;28;20508;-70
2022/05/22 09:13:10;;;;;;;3.50;2.20;;;15.10;99.90;;;;;;5076207;28;21068;-71
2022/05/22 09:16:28;;;;;;;3.93;2.30;;;15.10;99.90;;;;;;5076960;28;20561;-71
2022/05/22 09:19:21;;;;;;;4.30;2.23;;;15.10;99.90;;;;;;5076549;28;20456;-70
2022/05/22 09:22:21;;;;;;;4.30;2.27;;;15.10;99.90;;;;;;5076750;28;20497;-70
2022/05/22 09:25:18;;;;;;;3.03;2.07;;;15.10;99.90;;;;;;5074541;28;20494;-71
2022/05/22 09:28:16;;;;;;;2.80;1.70;;;15.20;99.90;;;;;;5076130;28;20447;-71
2022/05/22 09:31:14;;;;;;;3.57;1.57;;;15.30;99.90;;;;;;5076581;28;20514;-70
2022/05/22 09:34:14;;;;;;;9.00;1.80;;;15.30;99.90;;;;;;5074106;28;20603;-70
2022/05/22 09:37:11;;;;;;;2.47;1.23;;;15.40;99.90;;;;;;5079443;28;20569;-71
2022/05/22 09:40:17;;;;;;;4.17;1.67;;;15.50;99.90;;;;;;5077230;28;20550;-70
2022/05/22 09:43:30;;;;;;;3.90;1.53;;;15.60;99.90;;;;;;5075090;28;20578;-70
2022/05/22 09:46:44;;;;;;;1.70;1.30;;;15.70;99.90;;;;;;5060696;28;20480;-70
2022/05/22 09:49:58;;;;;;;2.07;1.50;;;15.80;99.90;;;;;;5074746;28;20468;-70
2022/05/22 09:52:54;;;;;;;4.13;1.77;;;15.80;99.90;;;;;;5076771;28;20991;-71
2022/05/22 09:55:45;;;;;;;2.10;1.50;;;15.80;99.90;;;;;;5072801;28;20572;-71
2022/05/22 09:58:51;;;;;;;2.83;1.73;;;15.80;99.90;;;;;;5071739;28;20469;-70
2022/05/22 10:01:43;;;;;;;3.33;1.63;;;15.90;99.90;;;;;;5073008;28;20932;-70
2022/05/22 10:04:44;;;;;;;1.40;1.30;;;16.00;99.90;;;;;;5075258;28;20489;-70
2022/05/22 10:07:38;;;;;;;2.03;1.50;;;16.10;99.90;;;;;;5076575;28;20468;-71
2022/05/22 10:10:34;;;;;;;4.40;1.60;;;16.10;99.90;;;;;;5075229;28;20600;-70
2022/05/22 10:13:30;;;;;;;3.50;1.97;;;16.20;99.90;;;;;;5073384;28;20996;-70
2022/05/22 10:16:31;;;;;;;2.50;1.57;;;16.20;99.90;;;;;;5075197;28;20560;-70
2022/05/22 10:19:33;;;;;;;3.50;1.40;;;16.20;99.90;;;;;;5073624;28;20812;-70
2022/05/22 10:22:31;;;;;;;2.80;1.60;;;16.30;99.90;;;;;;5075196;28;21002;-71
2022/05/22 10:25:29;;;;;;;2.40;1.47;;;16.30;99.90;;;;;;5076275;28;20541;-70
2022/05/22 10:28:20;;;;;;;3.50;1.70;;;16.30;99.90;;;;;;5076066;28;20453;-70
2022/05/22 10:31:13;;;;;;;2.60;1.80;;;16.30;99.90;;;;;;5075294;28;20450;-70
2022/05/22 10:34:09;;;;;;;4.07;2.33;;;16.30;99.90;;;;;;5075557;28;20961;-71
2022/05/22 10:37:01;;;;;;;2.13;1.93;;;16.30;99.90;;;;;;5076783;28;20475;-71
2022/05/22 10:39:51;;;;;;;3.53;1.70;;;16.30;99.90;;;;;;5072983;28;20528;-70
2022/05/22 10:42:46;;;;;;;3.13;1.37;;;16.30;99.90;;;;;;5072584;28;20488;-71
2022/05/22 10:45:38;;;;;;;1.43;1.33;;;16.40;99.90;;;;;;5074936;28;20480;-71
2022/05/22 10:48:28;;;;;;;3.43;1.60;;;16.50;99.90;;;;;;5076579;28;20557;-71
2022/05/22 10:51:24;;;;;;;2.77;1.23;;;16.60;99.90;;;;;;5073648;28;20441;-71
2022/05/22 10:54:25;;;;;;;2.87;1.30;;;16.70;99.90;;;;;;5073505;28;20526;-71
2022/05/22 10:57:17;;;;;;;1.47;1.13;;;16.90;99.90;;;;;;5075648;28;20552;-70
2022/05/22 11:00:17;;;;;;;2.30;1.13;;;17.00;99.90;;;;;;5073342;28;20449;-70
2022/05/22 11:03:12;;;;;;;2.67;1.30;;;17.00;99.90;;;;;;5074597;28;20581;-71
2022/05/22 11:06:03;;;;;;;5.03;1.50;;;17.10;99.90;;;;;;5074924;28;20470;-70
2022/05/22 11:08:55;;;;;;;1.80;1.43;;;17.20;99.90;;;;;;5076306;28;20547;-71
2022/05/22 11:11:43;;;;;;;1.67;1.20;;;17.30;99.90;;;;;;5080207;28;20519;-71
2022/05/22 11:14:35;;;;;;;2.53;1.43;;;17.40;99.90;;;;;;5079760;28;20466;-71
2022/05/22 11:17:24;;;;;;;1.93;1.40;;;17.50;99.90;;;;;;5074323;28;20531;-71
2022/05/22 11:20:16;;;;;;;3.33;1.60;;;17.50;99.90;;;;;;5074950;28;20450;-70
2022/05/22 11:23:18;;;;;;;3.70;1.40;;;17.60;99.90;;;;;;5075268;28;20564;-71
2022/05/22 11:26:29;;;;;;;2.27;1.00;;;17.70;99.90;;;;;;5075702;28;20472;-71
2022/05/22 11:29:33;;;;;;;1.43;1.00;;;17.80;99.90;;;;;;5074544;28;20506;-71
2022/05/22 11:32:32;;;;;;;2.77;1.33;;;18.00;99.90;;;;;;5075608;28;20628;-71
2022/05/22 11:35:32;;;;;;;2.23;1.03;;;18.10;99.90;;;;;;5076977;28;20481;-71
2022/05/22 11:38:44;;;;;;;1.80;1.10;;;18.20;99.90;;;;;;5077734;28;20553;-71
2022/05/22 11:41:36;;;;;;;2.00;1.07;;;18.40;99.90;;;;;;5071353;28;20493;-71
2022/05/22 11:45:00;;;;;;;1.43;1.10;;;18.50;99.90;;;;;;5078619;28;20614;-71
2022/05/22 11:48:17;;;;;;;1.77;1.03;;;18.60;99.90;;;;;;5079549;28;20455;-70
2022/05/22 11:51:22;;;;;;;3.40;1.30;;;18.70;99.90;;;;;;5079156;28;20546;-71
2022/05/22 11:54:23;;;;;;;2.50;1.10;;;18.80;99.90;;;;;;5078797;28;20501;-71
2022/05/22 11:57:25;;;;;;;1.47;0.90;;;18.90;99.90;;;;;;5077055;28;20669;-71
2022/05/22 12:00:17;;;;;;;1.30;1.13;;;19.10;99.90;;;;;;5077940;28;20449;-71
2022/05/22 12:03:46;;;;;;;2.20;1.30;;;19.20;99.90;;;;;;5078554;28;20496;-71
2022/05/22 12:06:53;;;;;;;1.43;1.20;;;19.30;99.90;;;;;;5077245;28;20544;-71
2022/05/22 12:09:48;;;;;;;2.90;1.30;;;19.20;99.90;;;;;;5078260;28;20460;-71
2022/05/22 12:12:42;;;;;;;3.30;1.27;;;19.10;99.90;;;;;;5078485;28;20554;-71
2022/05/22 12:15:43;;;;;;;2.27;1.20;;;19.00;99.90;;;;;;5077385;28;20480;-71
2022/05/22 12:18:48;;;;;;;3.33;1.60;;;19.10;99.90;;;;;;5077322;28;20470;-71
2022/05/22 12:21:52;;;;;;;2.17;1.20;;;19.20;99.90;;;;;;5076917;28;20496;-71
2022/05/22 12:24:47;;;;;;;2.90;1.30;;;19.30;99.90;;;;;;5079446;28;20560;-71
2022/05/22 12:27:36;;;;;;;1.93;1.23;;;19.40;99.90;;;;;;5076646;28;20442;-71
2022/05/22 12:30:29;;;;;;;1.60;1.27;;;19.60;99.90;;;;;;5076588;28;20512;-70
2022/05/22 12:33:17;;;;;;;2.87;1.40;;;19.70;99.90;;;;;;5077056;28;20589;-71
2022/05/22 12:36:08;;;;;;;1.87;1.20;;;19.80;99.90;;;;;;5078427;28;20565;-71
2022/05/22 12:39:01;;;;;;;2.30;1.20;;;19.90;99.90;;;;;;5075837;28;20562;-71
2022/05/22 12:41:58;;;;;;;1.87;1.47;;;20.10;99.90;;;;;;5077896;28;20555;-71
2022/05/22 12:44:46;;;;;;;1.73;1.37;;;20.30;99.90;;;;;;5074846;28;20606;-71
2022/05/22 12:47:41;;;;;;;1.10;0.90;;;20.50;99.90;;;;;;5079114;28;20603;-70
2022/05/22 12:50:35;;;;;;;3.20;1.30;;;20.60;99.90;;;;;;5077280;28;20460;-71
2022/05/22 12:53:28;;;;;;;2.13;1.23;;;20.50;99.90;;;;;;5077005;28;20545;-71
2022/05/22 12:56:21;;;;;;;1.63;1.03;;;20.40;99.90;;;;;;5077610;28;21136;-71
2022/05/22 12:59:21;;;;;;;1.30;1.13;;;20.30;99.90;;;;;;5073977;28;20492;-71
2022/05/22 13:02:26;;;;;;;1.80;1.07;;;20.30;99.90;;;;;;5076885;28;20570;-71
2022/05/22 13:05:19;;;;;;;1.40;1.10;;;20.40;99.90;;;;;;5077508;28;20880;-71
2022/05/22 13:08:19;;;;;;;2.57;1.40;;;20.30;99.90;;;;;;5077315;28;20474;-71
2022/05/22 13:11:12;;;;;;;2.43;1.20;;;20.10;99.90;;;;;;5077712;28;20949;-70
2022/05/22 13:14:27;;;;;;;2.97;1.27;;;20.00;99.90;;;;;;5074624;28;20469;-71
2022/05/22 13:17:17;;;;;;;2.13;0.93;;;19.90;99.90;;;;;;5076811;28;20453;-70
2022/05/22 13:20:09;;;;;;;1.13;1.00;;;19.90;99.90;;;;;;5078296;28;20544;-71
2022/05/22 13:23:05;;;;;;;1.80;1.10;;;19.90;99.90;;;;;;5075118;28;20484;-71
2022/05/22 13:25:55;;;;;;;1.70;1.10;;;19.90;99.90;;;;;;5077260;28;20504;-70
2022/05/22 13:28:48;;;;;;;1.17;1.00;;;19.90;99.90;;;;;;5074215;28;20453;-71
2022/05/22 13:31:45;;;;;;;5.20;1.30;;;20.00;99.90;;;;;;5073870;28;20513;-70
2022/05/22 13:34:38;;;;;;;1.00;0.90;;;20.10;99.90;;;;;;5075574;28;20607;-71
2022/05/22 13:37:29;;;;;;;1.10;1.00;;;20.10;99.90;;;;;;5074068;28;20519;-70
2022/05/22 13:40:26;;;;;;;1.70;1.20;;;20.00;99.90;;;;;;5065411;28;20449;-71
2022/05/22 13:44:02;;;;;;;2.70;1.20;;;20.00;99.90;;;;;;5066453;28;20470;-71
2022/05/22 13:47:17;;;;;;;3.23;1.40;;;20.00;99.90;;;;;;5074771;28;20996;-72
2022/05/22 13:53:36;;;;;;;1.00;0.90;;;20.10;99.90;;;;;;5070183;28;20465;-71
2022/05/22 13:56:39;;;;;;;2.10;1.00;;;20.10;99.90;;;;;;5080097;28;21092;-71
2022/05/22 13:59:31;;;;;;;1.30;0.83;;;20.30;99.90;;;;;;5083404;28;20573;-71
2022/05/22 14:02:24;;;;;;;1.00;0.80;;;20.50;99.90;;;;;;5083815;28;20565;-71
2022/05/22 14:05:13;;;;;;;1.30;1.10;;;20.40;99.90;;;;;;5083468;28;20484;-70
2022/05/22 14:08:08;;;;;;;1.23;0.87;;;20.40;99.90;;;;;;5076672;28;20525;-71
2022/05/22 14:10:58;;;;;;;1.33;0.83;;;20.30;99.90;;;;;;5075112;28;20449;-71
2022/05/22 14:13:51;;;;;;;0.80;0.80;;;20.30;99.90;;;;;;5067045;28;21019;-71
2022/05/22 14:16:41;;;;;;;1.43;0.90;;;20.10;99.90;;;;;;5073580;28;20511;-71
2022/05/22 14:19:33;;;;;;;2.63;1.00;;;20.10;99.90;;;;;;5073405;28;20551;-71
2022/05/22 14:22:22;;;;;;;1.97;1.17;;;20.10;99.90;;;;;;5069579;28;20484;-70
2022/05/22 14:25:14;;;;;;;1.00;0.83;;;20.20;99.90;;;;;;5070799;28;20504;-70
2022/05/22 14:28:06;;;;;;;0.70;0.70;;;20.70;99.90;;;;;;5067542;28;20969;-71
2022/05/22 14:30:54;;;;;;;1.43;0.90;;;21.10;99.90;;;;;;5072480;28;20462;-71
2022/05/22 14:33:42;;;;;;;1.07;0.60;;;21.60;99.90;;;;;;5067959;28;20497;-71
2022/05/22 14:36:33;;;;;;;2.57;1.27;;;21.70;99.90;;;;;;5070072;28;20533;-71
2022/05/22 14:39:23;;;;;;;1.20;1.10;;;21.60;99.90;;;;;;5070206;28;20587;-70
2022/05/22 14:42:12;;;;;;;2.00;1.23;;;21.30;99.90;;;;;;5071688;28;20642;-70
2022/05/22 14:45:12;;;;;;;2.10;1.20;;;21.20;99.90;;;;;;5072491;28;20511;-71
2022/05/22 14:48:25;;;;;;;1.50;1.00;;;21.10;99.90;;;;;;5070531;28;20511;-71
2022/05/22 14:51:30;;;;;;;1.60;1.23;;;20.80;99.90;;;;;;5071868;28;22468;-70
2022/05/22 14:54:27;;;;;;;1.40;1.00;;;20.60;99.90;;;;;;5071274;28;20484;-71
2022/05/22 14:57:19;;;;;;;1.50;1.30;;;20.50;99.90;;;;;;5072395;28;20445;-71
2022/05/22 15:00:13;;;;;;;2.17;1.00;;;20.40;99.90;;;;;;5072951;28;20500;-70
2022/05/22 15:03:06;;;;;;;3.20;1.03;;;20.50;99.90;;;;;;5067307;28;20500;-71
2022/05/22 15:05:57;;;;;;;2.47;1.37;;;20.70;99.90;;;;;;5072558;28;20583;-70
2022/05/22 15:08:54;;;;;;;2.00;0.90;;;21.00;99.90;;;;;;5069755;28;20453;-70
2022/05/22 15:11:46;;;;;;;1.10;0.90;;;21.30;99.90;;;;;;5077536;28;20533;-71
2022/05/22 15:14:44;;;;;;;1.83;1.20;;;21.40;99.90;;;;;;5073782;28;20594;-70
2022/05/22 15:17:35;;;;;;;1.20;1.07;;;21.40;99.90;;;;;;5072060;28;20445;-71